createdAt,value
2022-12-26T00:01:02.869Z,100337.37
2022-12-26T00:06:14.219Z,100349.67
2022-12-26T00:11:20.148Z,100351.78
2022-12-26T00:16:26.497Z,100342.45
2022-12-26T00:21:32.468Z,100342.02
2022-12-26T00:26:38.139Z,100322.61
2022-12-26T00:31:43.682Z,100315.94
2022-12-26T00:36:49.300Z,100299.45
2022-12-26T00:41:54.820Z,100292.05
2022-12-26T00:47:00.417Z,100283.12
2022-12-26T00:52:06.388Z,100270.51
2022-12-26T00:57:12.037Z,100264.98
2022-12-26T01:02:35.259Z,100263.67
2022-12-26T01:08:23.074Z,100254.44
2022-12-26T01:12:49.164Z,100255.08
2022-12-26T01:17:54.755Z,100246.41
2022-12-26T01:23:00.280Z,100246.13
2022-12-26T01:28:06.120Z,100237.37
2022-12-26T01:33:11.545Z,100208.19
2022-12-26T01:38:17.477Z,100210.30
2022-12-26T01:43:22.993Z,100207.63
2022-12-26T01:48:33.130Z,100209.53
2022-12-26T01:53:44.117Z,100199.19
2022-12-26T01:58:55.300Z,100204.25
2022-12-26T02:04:21.886Z,100194.70
2022-12-26T02:09:27.421Z,100204.40
2022-12-26T02:14:34.440Z,100191.42
2022-12-26T02:19:54.611Z,100182.16
2022-12-26T02:25:24.198Z,100178.13
2022-12-26T02:30:38.365Z,100179.37
2022-12-26T02:35:59.010Z,100187.77
2022-12-26T02:41:18.019Z,100179.09
2022-12-26T02:46:44.034Z,100174.32
2022-12-26T02:52:13.230Z,100160.43
2022-12-26T02:57:39.270Z,100156.70
2022-12-26T03:03:17.964Z,100159.28
2022-12-26T03:08:50.411Z,100154.73
2022-12-26T03:13:58.855Z,100140.19
2022-12-26T03:19:07.357Z,100133.60
2022-12-26T03:24:15.625Z,100144.95
2022-12-26T03:29:41.553Z,100144.47
2022-12-26T03:34:46.952Z,100137.77
2022-12-26T03:40:29.637Z,100130.12
2022-12-26T03:46:12.639Z,100122.86
2022-12-26T03:51:39.222Z,100135.37
2022-12-26T03:57:05.575Z,100139.58
2022-12-26T04:02:30.981Z,100142.86
2022-12-26T04:07:58.439Z,100135.11
2022-12-26T04:13:25.364Z,100139.30
2022-12-26T04:19:04.337Z,100152.84
2022-12-26T04:24:34.327Z,100156.95
2022-12-26T04:29:58.112Z,100158.40
2022-12-26T04:35:30.501Z,100157.14
2022-12-26T04:40:57.150Z,100142.36
2022-12-26T04:46:03.453Z,100158.98
2022-12-26T04:51:09.013Z,100155.91
2022-12-26T04:56:14.966Z,100158.23
2022-12-26T05:01:38.347Z,100153.78
2022-12-26T05:07:01.830Z,100147.61
2022-12-26T05:12:09.966Z,100158.38
2022-12-26T05:17:34.093Z,100164.14
2022-12-26T05:23:01.097Z,100165.72
2022-12-26T05:28:25.540Z,100179.34
2022-12-26T05:33:49.374Z,100177.66
2022-12-26T05:38:56.298Z,100163.48
2022-12-26T05:44:01.819Z,100160.75
2022-12-26T05:49:08.219Z,100164.73
2022-12-26T05:54:13.713Z,100157.22
2022-12-26T05:59:19.171Z,100158.17
2022-12-26T06:04:24.709Z,100168.43
2022-12-26T06:09:30.237Z,100175.56
2022-12-26T06:14:35.612Z,100158.31
2022-12-26T06:19:46.559Z,100162.91
2022-12-26T06:24:48.324Z,100164.42
2022-12-26T06:29:53.713Z,100166.41
2022-12-26T06:34:59.509Z,100179.34
2022-12-26T06:40:05.483Z,100192.72
2022-12-26T06:45:11.970Z,100198.06
2022-12-26T06:50:17.592Z,100201.50
2022-12-26T06:55:23.268Z,100201.02
2022-12-26T07:00:30.415Z,100208.84
2022-12-26T07:05:38.083Z,100197.69
2022-12-26T07:10:43.509Z,100205.88
2022-12-26T07:15:48.966Z,100204.03
2022-12-26T07:20:54.505Z,100205.20
2022-12-26T07:26:00.522Z,100222.50
2022-12-26T07:31:06.554Z,100225.73
2022-12-26T07:36:12.216Z,100232.34
2022-12-26T07:41:35.570Z,100237.04
2022-12-26T07:46:41.075Z,100242.01
2022-12-26T07:51:46.522Z,100268.17
2022-12-26T07:56:51.986Z,100264.84
2022-12-26T08:01:59.396Z,100267.41
2022-12-26T08:07:05.275Z,100277.59
2022-12-26T08:12:11.039Z,100289.02
2022-12-26T08:17:16.909Z,100295.83
2022-12-26T08:22:22.331Z,100306.82
2022-12-26T08:27:27.709Z,100305.10
2022-12-26T08:32:33.158Z,100317.14
2022-12-26T08:37:38.549Z,100318.37
2022-12-26T08:42:56.109Z,100320.29
2022-12-26T08:47:52.115Z,100317.71
2022-12-26T08:52:57.501Z,100335.19
2022-12-26T08:58:02.914Z,100328.59
2022-12-26T09:03:08.816Z,100331.08
2022-12-26T09:08:14.631Z,100343.40
2022-12-26T09:13:20.382Z,100339.11
2022-12-26T09:18:25.837Z,100337.86
2022-12-26T09:23:31.868Z,100331.37
2022-12-26T09:28:38.127Z,100325.41
2022-12-26T09:33:43.594Z,100331.13
2022-12-26T09:38:50.481Z,100324.06
2022-12-26T09:44:15.480Z,100322.47
2022-12-26T09:49:26.492Z,100336.41
2022-12-26T09:54:37.740Z,100339.47
2022-12-26T09:59:49.250Z,100334.08
2022-12-26T10:04:55.880Z,100332.06
2022-12-26T10:10:16.539Z,100336.66
2022-12-26T10:15:33.877Z,100329.44
2022-12-26T10:20:57.114Z,100332.02
2022-12-26T10:26:23.322Z,100327.53
2022-12-26T10:31:38.360Z,100330.50
2022-12-26T10:36:52.905Z,100324.58
2022-12-26T10:42:01.638Z,100329.25
2022-12-26T10:47:16.028Z,100345.28
2022-12-26T10:52:24.472Z,100334.31
2022-12-26T10:57:33.218Z,100344.05
2022-12-26T11:02:38.781Z,100359.36
2022-12-26T11:07:59.375Z,100373.69
2022-12-26T11:13:08.271Z,100367.09
2022-12-26T11:18:26.017Z,100349.84
2022-12-26T11:23:34.980Z,100339.72
2022-12-26T11:28:40.519Z,100325.86
2022-12-26T11:33:48.664Z,100330.48
2022-12-26T11:39:05.923Z,100328.20
2022-12-26T11:44:14.430Z,100341.69
2022-12-26T11:49:22.866Z,100324.52
2022-12-26T11:54:31.665Z,100340.25
2022-12-26T11:59:37.274Z,100328.73
2022-12-26T12:04:43.646Z,100347.36
2022-12-26T12:10:13.657Z,100355.39
2022-12-26T12:15:22.275Z,100352.23
2022-12-26T12:20:44.389Z,100358.16
2022-12-26T12:26:01.426Z,100343.62
2022-12-26T12:31:33.006Z,100338.37
2022-12-26T12:37:15.411Z,100342.06
2022-12-26T12:42:26.654Z,100351.17
2022-12-26T12:47:41.087Z,100344.30
2022-12-26T12:52:55.740Z,100334.13
2022-12-26T12:58:16.169Z,100320.33
2022-12-26T13:03:36.860Z,100315.17
2022-12-26T13:08:45.461Z,100332.45
2022-12-26T13:14:09.989Z,100326.83
2022-12-26T13:19:21.437Z,100329.59
2022-12-26T13:24:45.853Z,100333.41
2022-12-26T13:29:52.868Z,100342.97
2022-12-26T13:35:01.009Z,100349.66
2022-12-26T13:40:18.270Z,100349.85
2022-12-26T13:45:46.515Z,100344.12
2022-12-26T13:51:04.037Z,100349.09
2022-12-26T13:56:21.509Z,100349.09
2022-12-26T14:02:02.987Z,100357.48
2022-12-26T14:07:09.058Z,100360.45
2022-12-26T14:12:36.762Z,100351.27
2022-12-26T14:18:03.388Z,100361.59
2022-12-26T14:23:12.055Z,100361.65
2022-12-26T14:28:26.315Z,100365.70
2022-12-26T14:33:55.279Z,100359.11
2022-12-26T14:39:06.511Z,100379.36
2022-12-26T14:44:20.754Z,100378.22
2022-12-26T14:49:35.977Z,100387.02
2022-12-26T14:54:50.260Z,100375.27
2022-12-26T15:00:17.096Z,100368.04
2022-12-26T15:05:25.863Z,100371.20
2022-12-26T15:10:37.048Z,100376.55
2022-12-26T15:15:57.505Z,100368.05
2022-12-26T15:21:33.353Z,100350.50
2022-12-26T15:26:50.824Z,100353.72
2022-12-26T15:32:03.712Z,100349.61
2022-12-26T15:37:12.247Z,100360.78
2022-12-26T15:42:20.773Z,100355.72
2022-12-26T15:47:47.259Z,100353.81
2022-12-26T15:52:58.393Z,100340.92
2022-12-26T15:58:09.837Z,100343.88
2022-12-26T16:03:27.357Z,100351.91
2022-12-26T16:08:40.277Z,100342.73
2022-12-26T16:13:58.515Z,100351.05
2022-12-26T16:19:29.461Z,100347.51
2022-12-26T16:24:38.167Z,100356.55
2022-12-26T16:29:53.070Z,100354.53
2022-12-26T16:35:00.389Z,100359.88
2022-12-26T16:40:18.327Z,100364.19
2022-12-26T16:45:25.225Z,100363.80
2022-12-26T16:50:33.239Z,100365.33
2022-12-26T16:55:44.562Z,100348.66
2022-12-26T17:01:12.625Z,100355.92
2022-12-26T17:06:32.987Z,100369.91
2022-12-26T17:11:47.660Z,100366.14
2022-12-26T17:17:05.312Z,100376.41
2022-12-26T17:22:37.798Z,100375.08
2022-12-26T17:27:43.706Z,100369.28
2022-12-26T17:32:49.536Z,100378.09
2022-12-26T17:38:00.763Z,100373.70
2022-12-26T17:43:15.195Z,100381.06
2022-12-26T17:48:20.782Z,100380.58
2022-12-26T17:53:34.083Z,100395.09
2022-12-26T17:58:39.788Z,100401.38
2022-12-26T18:03:45.227Z,100406.91
2022-12-26T18:08:50.987Z,100407.08
2022-12-26T18:13:56.378Z,100414.69
2022-12-26T18:19:02.917Z,100429.27
2022-12-26T18:24:09.004Z,100434.81
2022-12-26T18:29:14.444Z,100442.53
2022-12-26T18:34:19.840Z,100466.14
2022-12-26T18:39:25.458Z,100459.72
2022-12-26T18:44:30.953Z,100473.09
2022-12-26T18:49:36.447Z,100481.46
2022-12-26T18:54:42.282Z,100495.31
2022-12-26T18:59:48.586Z,100513.45
2022-12-26T19:04:54.468Z,100527.01
2022-12-26T19:10:01.179Z,100532.86
2022-12-26T19:15:07.308Z,100534.97
2022-12-26T19:20:18.766Z,100533.03
2022-12-26T19:25:26.144Z,100519.59
2022-12-26T19:30:38.326Z,100523.73
2022-12-26T19:35:38.756Z,100548.74
2022-12-26T19:40:44.181Z,100555.53
2022-12-26T19:45:49.672Z,100586.02
2022-12-26T19:50:55.331Z,100585.42
2022-12-26T19:56:01.039Z,100603.83
2022-12-26T20:01:09.264Z,100638.17
2022-12-26T20:06:20.649Z,100642.52
2022-12-26T20:11:31.751Z,100645.81
2022-12-26T20:17:04.413Z,100667.66
2022-12-26T20:21:44.445Z,100678.31
2022-12-26T20:26:51.082Z,100679.52
2022-12-26T20:31:56.719Z,100692.09
2022-12-26T20:37:02.158Z,100704.81
2022-12-26T20:42:07.826Z,100688.95
2022-12-26T20:47:13.578Z,100676.77
2022-12-26T20:52:19.197Z,100700.44
2022-12-26T20:57:24.735Z,100720.88
2022-12-26T21:02:30.546Z,100727.86
2022-12-26T21:07:36.330Z,100756.09
2022-12-26T21:12:41.906Z,100755.23
2022-12-26T21:17:48.009Z,100743.39
2022-12-26T21:22:55.933Z,100748.16
2022-12-26T21:28:01.463Z,100753.98
2022-12-26T21:33:06.944Z,100746.52
2022-12-26T21:38:12.483Z,100750.69
2022-12-26T21:43:18.641Z,100744.47
2022-12-26T21:48:24.791Z,100756.08
2022-12-26T21:53:30.179Z,100743.77
2022-12-26T21:58:37.658Z,100748.54
2022-12-26T22:04:01.056Z,100748.19
2022-12-26T22:09:07.799Z,100771.28
2022-12-26T22:14:13.709Z,100790.28
2022-12-26T22:19:19.244Z,100795.12
2022-12-26T22:24:24.701Z,100811.45
2022-12-26T22:29:31.044Z,100828.36
2022-12-26T22:34:38.078Z,100840.09
2022-12-26T22:39:45.880Z,100840.37
2022-12-26T22:44:51.588Z,100833.05
2022-12-26T22:49:57.202Z,100855.28
2022-12-26T22:55:02.629Z,100861.63
2022-12-26T23:00:11.862Z,100866.64
2022-12-26T23:05:18.151Z,100870.81
2022-12-26T23:10:25.278Z,100872.95
2022-12-26T23:15:31.498Z,100870.49
2022-12-26T23:20:57.223Z,100876.23
2022-12-26T23:26:02.755Z,100882.96
2022-12-26T23:31:08.867Z,100879.94
2022-12-26T23:36:14.450Z,100878.77
2022-12-26T23:41:19.845Z,100900.69
2022-12-26T23:46:25.422Z,100899.15
2022-12-26T23:51:30.911Z,100903.89
2022-12-26T23:56:38.129Z,100908.80
